Time;durP1;ratioP1;P1;durP2;ratioP2;P2;SDS_P1;SDS_P2;PMS_P1;PMS_P2;Temp;Humidity;BMP_temperature;BMP_pressure;BME280_temperature;BME280_humidity;BME280_pressure;Samples;Min_cycle;Max_cycle;Signal;HPM_P1;HPM_P2
2023/03/13 00:01:32;;;;;;;5.55;5.05;;;;;;;7.59;100.00;99812.25;6091167;23;20010;-81
2023/03/13 00:03:59;;;;;;;10.85;4.07;;;;;;;7.27;100.00;99740.06;6096384;23;20045;-81
2023/03/13 00:06:35;;;;;;;4.72;4.00;;;;;;;7.35;100.00;99717.00;6098678;23;20492;-82
2023/03/13 00:09:04;;;;;;;5.05;4.65;;;;;;;9.23;100.00;100051.66;6121506;23;20037;-82
2023/03/13 00:11:31;;;;;;;6.10;4.22;;;;;;;9.44;100.00;100023.38;6116668;23;20101;-80
2023/03/13 00:14:01;;;;;;;4.63;4.03;;;;;;;7.43;100.00;99708.75;6103583;23;20021;-82
2023/03/13 00:16:28;;;;;;;5.20;4.70;;;;;;;7.45;100.00;99739.06;6119675;23;20028;-81
2023/03/13 00:18:56;;;;;;;4.45;4.15;;;;;;;7.67;100.00;99749.16;6095329;23;20037;-81
2023/03/13 00:21:26;;;;;;;4.55;4.25;;;;;;;9.47;100.00;100010.13;6095606;23;20485;-80
2023/03/13 00:23:53;;;;;;;13.95;4.45;;;;;;;7.29;100.00;99639.88;6092759;23;20029;-81
2023/03/13 00:26:23;;;;;;;11.07;5.05;;;;;;;8.38;100.00;99798.28;6073671;23;20018;-81
2023/03/13 00:28:50;;;;;;;4.20;4.00;;;;;;;7.43;100.00;99644.31;6119796;23;20538;-82
2023/03/13 00:31:22;;;;;;;4.40;4.13;;;;;;;8.57;100.00;99839.09;6095599;23;20021;-80
2023/03/13 00:33:52;;;;;;;4.82;4.47;;;;;;;7.72;100.00;99728.03;6081304;23;20026;-81
2023/03/13 00:36:21;;;;;;;4.57;4.38;;;;;;;6.77;100.00;99518.38;6092137;23;20046;-82
2023/03/13 00:38:51;;;;;;;4.70;4.30;;;;;;;6.82;100.00;99580.72;6057522;23;20053;-80
2023/03/13 00:41:24;;;;;;;5.47;4.40;;;;;;;9.13;100.00;99904.75;6085190;23;20013;-81
2023/03/13 00:43:53;;;;;;;7.30;4.20;;;;;;;7.10;100.00;99607.91;6091321;23;20026;-82
2023/03/13 00:46:22;;;;;;;5.75;4.40;;;;;;;7.67;100.00;99686.47;6107516;23;20587;-81
2023/03/13 00:48:49;;;;;;;4.82;4.55;;;;;;;6.92;100.00;99555.00;6087825;23;20057;-81
2023/03/13 00:51:18;;;;;;;15.02;5.30;;;;;;;8.83;100.00;99883.84;6088477;23;20013;-81
2023/03/13 00:53:46;;;;;;;10.55;4.88;;;;;;;9.44;100.00;99961.41;6114625;23;20024;-82
2023/03/13 00:56:14;;;;;;;9.07;4.95;;;;;;;8.50;100.00;99812.47;6104628;23;20374;-81
2023/03/13 00:58:43;;;;;;;12.43;4.68;;;;;;;9.23;100.00;99983.59;6111262;23;20520;-80
2023/03/13 01:01:13;;;;;;;4.88;4.63;;;;;;;9.51;100.00;99954.00;6106731;23;20643;-82
2023/03/13 01:03:41;;;;;;;6.00;5.15;;;;;;;6.05;100.00;99419.88;6109362;23;20067;-81
2023/03/13 01:06:11;;;;;;;12.85;5.13;;;;;;;9.57;100.00;99946.59;6104008;23;20174;-82
2023/03/13 01:08:40;;;;;;;4.53;4.18;;;;;;;9.57;100.00;99946.59;6101314;23;20598;-82
2023/03/13 01:11:10;;;;;;;4.47;4.25;;;;;;;8.85;100.00;99829.63;6107484;23;20033;-82
2023/03/13 01:13:37;;;;;;;4.00;3.80;;;;;;;9.64;100.00;99946.25;6111053;23;20058;-82
2023/03/13 01:16:09;;;;;;;5.45;4.90;;;;;;;8.66;100.00;99795.84;6107156;23;20025;-81
2023/03/13 01:18:38;;;;;;;5.82;4.60;;;;;;;9.71;100.00;99932.69;6085784;23;20030;-82
2023/03/13 01:21:05;;;;;;;7.82;4.22;;;;;;;8.79;100.00;99768.88;6078206;23;20017;-81
2023/03/13 01:23:32;;;;;;;5.43;4.15;;;;;;;8.81;100.00;99786.28;6104833;23;20091;-82
2023/03/13 01:25:58;;;;;;;6.90;4.43;;;;;;;8.86;100.00;99768.50;6084757;23;20049;-81
2023/03/13 01:28:25;;;;;;;5.65;4.05;;;;;;;9.42;100.00;99849.78;6115119;23;20363;-82
2023/03/13 01:30:52;;;;;;;4.93;4.45;;;;;;;9.32;100.00;99825.94;6076671;23;20040;-83
2023/03/13 01:33:19;;;;;;;4.13;3.92;;;;;;;8.84;100.00;99728.53;6079124;23;20426;-82
2023/03/13 01:35:45;;;;;;;13.70;4.75;;;;;;;9.75;100.00;99870.44;6080727;23;20486;-82
2023/03/13 01:38:14;;;;;;;8.77;4.57;;;;;;;9.12;100.00;99772.16;6106218;23;20020;-81
2023/03/13 01:40:46;;;;;;;4.68;4.00;;;;;;;9.33;100.00;99804.91;6108357;23;20025;-81
2023/03/13 01:43:19;;;;;;;14.48;13.77;;;;;;;9.05;100.00;99729.84;5982782;23;20411;-81
2023/03/13 01:46:23;;;;;;;7.72;4.35;;;;;;;10.03;100.00;99877.44;6094509;23;20709;-81
2023/03/13 01:48:58;;;;;;;5.00;4.60;;;;;;;7.34;100.00;99465.59;6101625;23;20202;-80
2023/03/13 01:52:03;;;;;;;6.95;4.35;;;;;;;10.07;100.00;99868.44;6113811;23;20221;-81
2023/03/13 01:54:41;;;;;;;4.05;3.85;;;;;;;9.11;100.00;99703.28;6116346;23;20029;-81
2023/03/13 01:57:18;;;;;;;4.32;4.13;;;;;;;9.72;100.00;99799.88;6086108;23;20022;-81
2023/03/13 02:00:16;;;;;;;5.63;4.35;;;;;;;9.53;100.00;99753.91;6117868;23;20092;-81
2023/03/13 02:02:50;;;;;;;4.35;4.15;;;;;;;9.80;100.00;99789.75;6091546;23;20026;-82
2023/03/13 02:05:21;;;;;;;5.00;4.50;;;;;;;9.96;100.00;99827.19;6090223;23;20388;-81
2023/03/13 02:08:15;;;;;;;5.55;4.05;;;;;;;9.95;100.00;99808.94;6086663;23;20085;-83
2023/03/13 02:11:06;;;;;;;4.30;4.07;;;;;;;9.77;100.00;99779.50;6077520;23;20687;-79
2023/03/13 02:13:32;;;;;;;5.15;4.85;;;;;;;9.93;100.00;99800.31;6115665;23;20447;-81
2023/03/13 02:16:00;;;;;;;4.53;4.18;;;;;;;8.50;100.00;99565.81;6096140;23;20030;-80
2023/03/13 02:18:27;;;;;;;4.20;3.90;;;;;;;9.90;100.00;99809.22;6094474;23;20057;-81
2023/03/13 02:21:00;;;;;;;4.97;4.20;;;;;;;9.88;100.00;99805.88;6092311;23;20029;-81
2023/03/13 02:23:33;;;;;;;4.55;4.18;;;;;;;9.85;100.00;99798.19;6068080;23;20030;-83
2023/03/13 02:26:00;;;;;;;4.03;3.83;;;;;;;9.07;100.00;99693.94;6119786;23;20041;-82
2023/03/13 02:28:32;;;;;;;9.77;5.70;;;;;;;9.83;100.00;99796.59;6116077;23;20058;-80
2023/03/13 02:31:00;;;;;;;4.30;4.10;;;;;;;9.72;100.00;99792.03;6110359;23;20021;-81
2023/03/13 02:33:29;;;;;;;4.70;4.40;;;;;;;9.18;100.00;99706.34;6091022;23;20038;-81
2023/03/13 02:35:58;;;;;;;4.30;4.10;;;;;;;9.76;100.00;99814.47;6116856;23;20096;-79
2023/03/13 02:38:28;;;;;;;4.20;3.90;;;;;;;8.66;100.00;99639.78;6086481;23;20575;-81
2023/03/13 02:40:56;;;;;;;4.88;4.65;;;;;;;8.83;100.00;99670.13;6110575;23;20032;-81
2023/03/13 02:43:33;;;;;;;4.03;3.83;;;;;;;8.74;100.00;99636.69;6096529;23;20048;-80
2023/03/13 02:46:06;;;;;;;4.15;3.95;;;;;;;8.78;100.00;99669.59;6112077;23;20114;-81
2023/03/13 02:48:45;;;;;;;4.97;4.68;;;;;;;8.56;100.00;99615.13;6114000;23;20029;-80
2023/03/13 02:51:24;;;;;;;5.72;4.57;;;;;;;8.38;100.00;99604.00;6088848;23;20010;-78
2023/03/13 02:53:54;;;;;;;4.60;4.35;;;;;;;8.10;100.00;99545.53;6114053;23;20100;-81
2023/03/13 02:56:24;;;;;;;4.00;3.80;;;;;;;9.62;100.00;99791.75;6109088;23;20021;-82
2023/03/13 02:58:50;;;;;;;7.07;3.95;;;;;;;8.90;100.00;99671.44;6120260;23;20041;-80
2023/03/13 03:01:17;;;;;;;4.95;4.57;;;;;;;8.71;100.00;99626.41;6115809;23;20056;-81
2023/03/13 03:03:43;;;;;;;4.00;3.80;;;;;;;9.62;100.00;99775.22;6120943;23;20699;-81
2023/03/13 03:06:10;;;;;;;4.50;4.20;;;;;;;8.99;100.00;99643.84;6108901;23;20017;-81
2023/03/13 03:08:40;;;;;;;4.28;3.63;;;;;;;8.43;100.00;99552.28;6096174;23;20033;-81
2023/03/13 03:11:06;;;;;;;4.00;3.80;;;;;;;9.62;100.00;99734.13;6116744;23;20017;-80
2023/03/13 03:13:33;;;;;;;4.28;3.92;;;;;;;8.84;100.00;99605.56;6113334;23;20119;-81
2023/03/13 03:16:08;;;;;;;4.00;3.80;;;;;;;7.72;100.00;99483.38;6095310;23;20341;-82
2023/03/13 03:18:36;;;;;;;4.40;4.10;;;;;;;9.13;100.00;99661.31;6117813;23;20447;-80
2023/03/13 03:21:05;;;;;;;4.00;3.80;;;;;;;9.50;100.00;99708.72;6116476;23;20060;-80
2023/03/13 03:23:32;;;;;;;4.10;3.90;;;;;;;8.94;100.00;99632.81;6085907;23;20033;-79
2023/03/13 03:25:59;;;;;;;4.53;4.10;;;;;;;9.68;100.00;99736.38;6116358;23;20037;-80
2023/03/13 03:28:26;;;;;;;4.28;4.07;;;;;;;7.92;100.00;99447.38;6092046;23;20083;-79
2023/03/13 03:30:53;;;;;;;3.90;3.70;;;;;;;8.61;100.00;99559.94;6112303;23;20805;-80
2023/03/13 03:33:20;;;;;;;4.13;3.92;;;;;;;9.25;100.00;99672.78;6140537;23;20063;-79
2023/03/13 03:35:47;;;;;;;4.10;3.90;;;;;;;7.52;100.00;99369.69;6141917;23;20029;-77
2023/03/13 03:38:14;;;;;;;4.38;3.90;;;;;;;8.93;100.00;99584.88;6144770;23;20037;-77
2023/03/13 03:40:40;;;;;;;4.22;4.03;;;;;;;9.20;100.00;99633.81;6141887;23;20036;-81
2023/03/13 03:43:07;;;;;;;4.18;3.97;;;;;;;7.35;100.00;99320.28;6112662;23;20255;-79
2023/03/13 03:45:33;;;;;;;3.80;3.70;;;;;;;9.10;100.00;99599.53;6113715;23;20033;-79
2023/03/13 03:48:00;;;;;;;3.70;3.60;;;;;;;9.44;100.00;99654.13;6096363;23;20052;-78
2023/03/13 03:50:26;;;;;;;4.35;4.05;;;;;;;8.84;100.00;99533.16;6142757;23;20020;-78
2023/03/13 03:52:53;;;;;;;3.85;3.70;;;;;;;9.69;100.00;99666.47;6112525;23;20051;-79
2023/03/13 03:55:19;;;;;;;4.35;4.10;;;;;;;9.42;100.00;99624.56;6101297;23;20101;-79
2023/03/13 03:57:45;;;;;;;3.85;3.67;;;;;;;7.53;100.00;99313.94;6112187;23;20093;-81
2023/03/13 04:00:15;;;;;;;4.07;3.88;;;;;;;9.72;100.00;99667.13;6116502;23;20823;-82
2023/03/13 04:02:41;;;;;;;4.00;3.80;;;;;;;6.76;100.00;99206.44;6065241;23;20763;-79
2023/03/13 04:05:08;;;;;;;4.15;3.95;;;;;;;9.58;100.00;99607.78;6116197;23;20028;-80
2023/03/13 04:07:35;;;;;;;11.82;4.00;;;;;;;10.17;100.00;99690.41;6094160;23;20036;-80
2023/03/13 04:10:03;;;;;;;4.00;3.80;;;;;;;9.68;100.00;99626.34;6115146;23;20471;-79
2023/03/13 04:12:29;;;;;;;4.30;4.10;;;;;;;9.18;100.00;99510.03;6092810;23;20051;-80
2023/03/13 04:14:56;;;;;;;4.40;4.13;;;;;;;9.94;100.00;99629.88;6116076;23;20100;-77
2023/03/13 04:17:22;;;;;;;4.20;4.00;;;;;;;9.08;100.00;99457.47;6097173;23;20021;-78
2023/03/13 04:19:49;;;;;;;4.40;4.20;;;;;;;9.25;100.00;99484.31;6116997;23;20031;-81
2023/03/13 04:22:15;;;;;;;4.35;4.15;;;;;;;9.84;100.00;99565.06;6089943;23;20021;-80
2023/03/13 04:24:41;;;;;;;4.15;3.95;;;;;;;10.03;100.00;99601.38;6116525;23;20033;-82
2023/03/13 04:27:08;;;;;;;4.03;3.83;;;;;;;7.66;100.00;99245.28;6112564;23;20040;-79
2023/03/13 04:29:34;;;;;;;3.85;3.72;;;;;;;10.30;100.00;99636.22;6109112;23;20408;-83
2023/03/13 04:32:01;;;;;;;4.15;3.95;;;;;;;10.62;100.00;99683.00;6117384;23;20033;-80
2023/03/13 04:34:27;;;;;;;3.85;3.67;;;;;;;9.37;100.00;99449.44;6087454;23;20033;-80
2023/03/13 04:36:54;;;;;;;4.30;4.10;;;;;;;10.06;100.00;99575.75;6116609;23;20036;-80
2023/03/13 04:39:24;;;;;;;4.22;4.03;;;;;;;8.90;100.00;99374.94;6093715;23;20033;-81
2023/03/13 04:41:52;;;;;;;4.20;4.00;;;;;;;9.84;100.00;99489.91;6081535;23;20380;-79
2023/03/13 04:44:18;;;;;;;4.20;4.00;;;;;;;9.90;100.00;99492.13;6109819;23;20719;-82
2023/03/13 04:46:45;;;;;;;4.00;3.80;;;;;;;10.99;100.00;99711.97;6065329;23;20486;-80
2023/03/13 04:49:14;;;;;;;4.40;4.20;;;;;;;6.90;100.00;98993.56;6118332;23;20092;-82
2023/03/13 04:51:42;;;;;;;4.10;3.90;;;;;;;8.24;100.00;99173.59;6086500;23;20527;-80
2023/03/13 04:54:12;;;;;;;5.55;5.25;;;;;;;9.19;100.00;99329.31;6117112;23;20037;-78
2023/03/13 04:56:42;;;;;;;4.07;3.88;;;;;;;6.55;100.00;98908.00;6085081;23;20081;-82
2023/03/13 04:59:14;;;;;;;5.30;4.47;;;;;;;7.54;100.00;99066.78;6113325;23;20037;-83
2023/03/13 05:01:42;;;;;;;4.00;3.80;;;;;;;9.24;100.00;99370.03;6092466;23;20609;-80
2023/03/13 05:04:09;;;;;;;4.30;4.10;;;;;;;11.25;100.00;99627.88;6113138;23;20022;-81
2023/03/13 05:06:41;;;;;;;4.25;4.05;;;;;;;6.74;100.00;98944.16;6095414;23;20021;-80
2023/03/13 05:09:08;;;;;;;4.57;4.38;;;;;;;7.33;100.00;98993.34;6082496;23;20245;-82
2023/03/13 05:11:35;;;;;;;4.80;4.50;;;;;;;10.76;100.00;99554.31;6106844;23;20017;-78
2023/03/13 05:14:01;;;;;;;5.35;4.28;;;;;;;9.96;100.00;99352.78;6086405;23;20221;-80
2023/03/13 05:16:28;;;;;;;4.40;4.20;;;;;;;10.51;100.00;99434.53;6109199;23;20029;-79
2023/03/13 05:18:54;;;;;;;4.30;4.10;;;;;;;11.48;100.00;99544.75;6110738;23;20028;-78
2023/03/13 05:21:21;;;;;;;4.40;4.20;;;;;;;9.49;100.00;99212.94;6133895;23;20025;-79
2023/03/13 05:23:47;;;;;;;4.28;4.07;;;;;;;8.54;100.00;99075.75;6086936;23;20061;-80
2023/03/13 05:26:16;;;;;;;4.72;4.53;;;;;;;8.00;100.00;98982.75;6108933;23;20028;-79
2023/03/13 05:28:43;;;;;;;4.47;4.28;;;;;;;7.63;100.00;98895.66;6124025;23;20220;-83
2023/03/13 05:31:12;;;;;;;4.60;4.40;;;;;;;7.44;100.00;98902.13;6099437;23;20032;-82
2023/03/13 05:33:41;;;;;;;4.53;4.32;;;;;;;10.13;100.00;99319.28;6093719;23;20388;-82
2023/03/13 05:36:11;;;;;;;4.72;4.53;;;;;;;9.67;100.00;99250.06;6089231;23;20679;-80
2023/03/13 05:38:38;;;;;;;4.30;4.10;;;;;;;9.13;100.00;99140.47;6089613;23;20132;-78
2023/03/13 05:41:18;;;;;;;4.50;4.30;;;;;;;7.01;100.00;98786.81;6111997;23;20033;-82
2023/03/13 05:43:47;;;;;;;4.47;4.28;;;;;;;9.46;100.00;99210.53;6088122;23;20034;-79
2023/03/13 05:46:14;;;;;;;4.90;4.70;;;;;;;11.89;100.00;99564.50;6111056;23;20083;-81
2023/03/13 05:48:48;;;;;;;4.60;4.40;;;;;;;7.26;100.00;98895.56;6088406;23;20026;-83
2023/03/13 05:51:18;;;;;;;4.32;4.13;;;;;;;11.56;100.00;99559.00;6116310;23;20023;-81
2023/03/13 05:53:44;;;;;;;4.32;4.13;;;;;;;11.28;100.00;99501.59;6113892;23;20022;-81
2023/03/13 05:56:55;;;;;;;4.25;4.05;;;;;;;11.33;100.00;99528.34;6089148;23;20034;-80
2023/03/13 06:00:35;;;;;;;4.40;4.20;;;;;;;11.93;100.00;99592.25;6112194;23;20155;-81
2023/03/13 06:03:55;;;;;;;4.35;4.15;;;;;;;11.71;100.00;99558.81;6076131;23;20463;-80
2023/03/13 06:07:53;;;;;;;4.50;4.30;;;;;;;11.98;100.00;99604.06;6033658;23;20202;-83
2023/03/13 06:10:19;;;;;;;4.13;3.92;;;;;;;12.04;100.00;99607.19;6044956;23;20053;-81
2023/03/13 06:13:03;;;;;;;4.32;4.13;;;;;;;10.88;100.00;99415.28;6087003;23;20069;-81
2023/03/13 06:15:52;;;;;;;6.45;4.50;;;;;;;10.95;100.00;99416.50;6059141;23;20507;-79
2023/03/13 06:18:21;;;;;;;4.50;4.30;;;;;;;11.57;100.00;99523.88;6085852;23;20075;-81
2023/03/13 06:20:49;;;;;;;4.45;4.25;;;;;;;11.14;100.00;99448.28;6062289;23;20045;-82
2023/03/13 06:23:15;;;;;;;4.30;4.10;;;;;;;11.60;100.00;99512.31;6081179;23;20477;-79
2023/03/13 06:25:46;;;;;;;4.72;4.43;;;;;;;11.73;100.00;99530.63;6038355;23;20018;-83
2023/03/13 06:28:12;;;;;;;4.40;4.18;;;;;;;12.19;100.00;99616.56;6086183;23;20492;-80
2023/03/13 06:30:39;;;;;;;4.47;4.28;;;;;;;11.68;100.00;99535.38;6034873;23;20080;-80
2023/03/13 06:33:05;;;;;;;4.97;4.78;;;;;;;12.25;100.00;99597.69;6092757;23;20112;-82
2023/03/13 06:35:33;;;;;;;4.88;4.57;;;;;;;12.03;100.00;99552.91;6069095;23;20018;-82
2023/03/13 06:38:14;;;;;;;4.38;4.18;;;;;;;12.38;100.00;99602.81;6070889;23;20061;-79
2023/03/13 06:40:41;;;;;;;5.25;4.80;;;;;;;11.02;100.00;99390.63;6063122;23;20032;-81
2023/03/13 06:43:07;;;;;;;4.55;4.35;;;;;;;11.57;100.00;99491.53;6087440;23;20084;-80
2023/03/13 06:45:35;;;;;;;4.60;4.40;;;;;;;11.65;100.00;99507.56;6053172;23;20090;-80
2023/03/13 06:48:02;;;;;;;4.75;4.45;;;;;;;11.96;100.00;99563.06;6087241;23;20033;-79
2023/03/13 06:50:29;;;;;;;4.40;4.20;;;;;;;12.14;100.00;99576.59;6052991;23;20022;-80
2023/03/13 06:52:56;;;;;;;5.00;4.70;;;;;;;11.85;100.00;99542.84;6076103;23;20025;-78
2023/03/13 06:55:23;;;;;;;4.45;4.25;;;;;;;11.70;100.00;99488.78;6064131;23;20189;-81
2023/03/13 06:57:51;;;;;;;4.63;4.43;;;;;;;12.15;100.00;99539.69;6089926;23;20532;-78
2023/03/13 07:00:19;;;;;;;4.93;4.60;;;;;;;12.14;100.00;99532.72;6062482;23;20463;-78
2023/03/13 07:02:48;;;;;;;4.50;4.30;;;;;;;12.54;100.00;99563.00;6056011;23;20030;-78
2023/03/13 07:05:15;;;;;;;5.05;4.75;;;;;;;12.42;100.00;99561.31;6054050;23;20036;-81
2023/03/13 07:07:45;;;;;;;4.80;4.60;;;;;;;12.32;100.00;99533.09;6085029;23;20029;-78
2023/03/13 07:10:12;;;;;;;4.53;4.32;;;;;;;12.44;100.00;99527.84;6052482;23;20068;-80
2023/03/13 07:12:38;;;;;;;5.03;4.63;;;;;;;12.52;100.00;99544.69;6085131;23;20033;-80
2023/03/13 07:15:05;;;;;;;5.10;4.80;;;;;;;12.85;100.00;99607.94;6054793;23;20022;-79
2023/03/13 07:17:32;;;;;;;4.70;4.50;;;;;;;12.32;100.00;99530.47;6098460;23;20102;-79
2023/03/13 07:19:58;;;;;;;5.00;4.70;;;;;;;12.13;100.00;99493.41;6064400;23;20105;-81
2023/03/13 07:22:24;;;;;;;5.20;4.80;;;;;;;12.49;100.00;99559.91;6092114;23;20024;-80
2023/03/13 07:24:51;;;;;;;5.32;4.95;;;;;;;12.69;100.00;99596.00;6059755;23;20018;-80
2023/03/13 07:27:19;;;;;;;4.93;4.68;;;;;;;12.65;100.00;99560.38;6094873;23;20030;-81
2023/03/13 07:29:46;;;;;;;4.60;4.40;;;;;;;12.40;100.00;99510.63;6064048;23;20063;-81
2023/03/13 07:32:13;;;;;;;4.90;4.63;;;;;;;11.89;100.00;99423.38;6081963;23;20073;-81
2023/03/13 07:34:39;;;;;;;4.90;4.60;;;;;;;12.72;100.00;99534.38;6066086;23;20025;-82
2023/03/13 07:37:05;;;;;;;5.05;4.75;;;;;;;11.97;100.00;99399.94;6065311;23;20041;-82
2023/03/13 07:39:32;;;;;;;5.07;4.78;;;;;;;12.82;100.00;99531.84;6068344;23;20030;-79
2023/03/13 07:41:58;;;;;;;4.60;4.40;;;;;;;12.71;100.00;99515.13;6054800;23;20028;-81
2023/03/13 07:44:25;;;;;;;4.78;4.47;;;;;;;12.61;100.00;99476.47;6055550;23;20482;-80
2023/03/13 07:46:51;;;;;;;4.97;4.68;;;;;;;12.78;100.00;99500.50;6081951;23;20041;-81
2023/03/13 07:49:18;;;;;;;4.63;4.43;;;;;;;12.42;100.00;99437.66;6051035;23;20019;-83
2023/03/13 07:51:47;;;;;;;5.38;5.05;;;;;;;12.66;100.00;99476.97;6081522;23;20030;-83
2023/03/13 07:54:13;;;;;;;5.35;4.95;;;;;;;12.37;100.00;99432.78;6060132;23;20358;-81
2023/03/13 07:56:39;;;;;;;6.65;4.53;;;;;;;11.77;100.00;99325.25;6085066;23;20034;-79
2023/03/13 07:59:06;;;;;;;4.80;4.40;;;;;;;12.89;100.00;99509.31;6050766;23;20118;-80
2023/03/13 08:01:33;;;;;;;5.70;5.20;;;;;;;11.42;100.00;99279.91;6063167;23;20536;-80
2023/03/13 08:04:00;;;;;;;6.88;5.20;;;;;;;12.40;100.00;99436.94;6057337;23;20037;-83
2023/03/13 08:06:29;;;;;;;10.65;4.63;;;;;;;12.70;100.00;99494.19;6085038;23;20407;-81
2023/03/13 08:08:59;;;;;;;8.25;4.72;;;;;;;12.07;100.00;99383.44;6057858;23;20125;-79
2023/03/13 08:11:27;;;;;;;4.90;4.60;;;;;;;12.97;100.00;99497.22;6090192;23;20052;-78
2023/03/13 08:13:55;;;;;;;4.90;4.60;;;;;;;9.99;100.00;99051.16;6084217;23;20362;-78
2023/03/13 08:16:28;;;;;;;4.55;4.35;;;;;;;12.04;100.00;99363.47;6065891;23;20034;-80
2023/03/13 08:18:57;;;;;;;5.15;4.80;;;;;;;13.08;100.00;99513.94;6068535;23;20026;-80
2023/03/13 08:21:26;;;;;;;5.03;4.72;;;;;;;12.84;100.00;99462.31;6055629;23;20094;-80
2023/03/13 08:24:02;;;;;;;11.73;5.03;;;;;;;13.11;100.00;99485.56;6089363;23;20046;-80
2023/03/13 08:26:29;;;;;;;5.35;5.00;;;;;;;12.73;100.00;99430.75;6092609;23;20026;-79
2023/03/13 08:28:58;;;;;;;5.30;4.90;;;;;;;12.89;100.00;99480.34;6083708;23;20022;-78
2023/03/13 08:31:30;;;;;;;5.10;4.80;;;;;;;12.92;100.00;99466.94;6083519;23;20058;-80
2023/03/13 08:33:57;;;;;;;11.70;5.10;;;;;;;12.67;100.00;99440.00;6083527;23;20032;-78
2023/03/13 08:36:26;;;;;;;5.82;5.30;;;;;;;13.25;100.00;99508.13;6062011;23;20029;-81
2023/03/13 08:38:56;;;;;;;5.28;4.88;;;;;;;13.24;100.00;99506.44;6090198;23;20085;-79
2023/03/13 08:41:25;;;;;;;5.10;4.80;;;;;;;13.26;100.00;99515.06;6072654;23;20068;-83
2023/03/13 08:43:52;;;;;;;5.50;5.10;;;;;;;13.20;100.00;99477.84;6083995;23;20246;-79
2023/03/13 08:46:19;;;;;;;4.72;4.53;;;;;;;13.17;100.00;99473.69;6086999;23;20002;-77
2023/03/13 08:48:50;;;;;;;5.18;4.70;;;;;;;13.26;100.00;99466.81;6068373;23;20031;-80
2023/03/13 08:51:19;;;;;;;5.07;4.68;;;;;;;13.04;100.00;99430.88;6087824;23;20121;-78
2023/03/13 08:53:46;;;;;;;5.25;4.95;;;;;;;12.40;100.00;99348.31;6055147;23;20089;-79
2023/03/13 08:56:15;;;;;;;4.97;4.75;;;;;;;13.05;100.00;99441.28;6091414;23;20020;-81
2023/03/13 08:58:47;;;;;;;4.90;4.60;;;;;;;13.54;100.00;99518.91;6081941;23;20037;-81
2023/03/13 09:01:14;;;;;;;;;;;;;;;13.57;100.00;99523.94;6066827;23;20102;-77
2023/03/13 09:03:42;;;;;;;10.20;4.63;;;;;;;12.68;100.00;99410.06;6083390;23;19925;-79
2023/03/13 09:06:10;;;;;;;5.13;4.80;;;;;;;13.55;100.00;99520.59;6084759;23;20479;-79
2023/03/13 09:08:38;;;;;;;6.13;5.25;;;;;;;13.38;100.00;99478.16;6089016;23;20045;-78
2023/03/13 09:11:07;;;;;;;8.55;5.05;;;;;;;12.76;100.00;99362.88;6111521;23;20021;-81
2023/03/13 09:13:37;;;;;;;5.20;4.90;;;;;;;13.24;100.00;99440.56;6109478;23;20037;-78
2023/03/13 09:16:06;;;;;;;5.40;5.10;;;;;;;13.80;100.00;99512.41;6091293;23;20037;-79
2023/03/13 09:18:33;;;;;;;5.10;4.70;;;;;;;12.75;100.00;99342.78;6095843;23;20518;-79
2023/03/13 09:21:00;;;;;;;6.07;5.53;;;;;;;13.52;100.00;99467.28;6096845;23;20029;-80
2023/03/13 09:23:27;;;;;;;5.68;5.00;;;;;;;13.72;100.00;99479.63;6118539;23;20349;-80
2023/03/13 09:25:56;;;;;;;5.13;4.82;;;;;;;13.41;100.00;99396.19;6097907;23;20036;-80
2023/03/13 09:28:24;;;;;;;6.25;5.00;;;;;;;13.62;100.00;99409.34;6086074;23;20184;-80
2023/03/13 09:30:51;;;;;;;5.30;5.00;;;;;;;14.01;100.00;99457.84;6091673;23;20031;-78
2023/03/13 09:33:19;;;;;;;5.10;4.80;;;;;;;13.91;100.00;99431.44;6085404;23;20084;-79
2023/03/13 09:35:49;;;;;;;5.40;5.10;;;;;;;13.96;100.00;99417.81;6059495;23;20030;-77
2023/03/13 09:38:18;;;;;;;5.47;5.03;;;;;;;14.54;100.00;99481.34;6117092;23;20432;-78
2023/03/13 09:40:47;;;;;;;5.47;5.00;;;;;;;13.99;100.00;99369.25;6094516;23;20029;-79
2023/03/13 09:43:40;;;;;;;5.53;5.15;;;;;;;14.51;100.00;99451.72;6115361;23;20022;-78
2023/03/13 09:46:16;;;;;;;12.65;5.53;;;;;;;14.16;100.00;99398.44;6112925;23;20014;-79
2023/03/13 09:48:48;;;;;;;5.70;5.10;;;;;;;13.49;100.00;99269.88;6111493;23;20064;-81
2023/03/13 09:51:26;;;;;;;4.97;4.68;;;;;;;13.96;100.00;99326.34;6113799;23;20085;-80
2023/03/13 09:54:19;;;;;;;5.47;5.07;;;;;;;14.38;100.00;99335.03;6089440;23;20037;-77
2023/03/13 09:56:56;;;;;;;4.90;4.70;;;;;;;15.34;100.00;99431.06;6073704;23;20018;-81
2023/03/13 09:59:45;;;;;;;5.93;5.63;;;;;;;15.27;100.00;99366.50;6081942;23;20742;-77
2023/03/13 10:02:23;;;;;;;5.20;4.90;;;;;;;15.64;100.00;99386.88;6062855;23;20038;-79
2023/03/13 10:04:55;;;;;;;5.28;4.95;;;;;;;15.69;99.43;99389.91;6088135;23;20048;-79
2023/03/13 10:07:24;;;;;;;5.47;5.00;;;;;;;15.36;97.53;99299.59;6094129;23;20025;-80
2023/03/13 10:09:52;;;;;;;5.60;5.20;;;;;;;15.39;96.12;99298.44;6117463;23;20032;-80
2023/03/13 10:12:23;;;;;;;5.30;5.00;;;;;;;14.98;96.04;99230.03;6087504;23;20026;-80
2023/03/13 10:15:12;;;;;;;5.30;5.00;;;;;;;15.65;96.01;99354.16;6089585;23;20025;-79
2023/03/13 10:17:39;;;;;;;4.97;4.78;;;;;;;15.16;96.21;99286.44;6081905;23;20026;-80
2023/03/13 10:20:28;;;;;;;5.63;5.22;;;;;;;15.89;96.38;99346.53;6121865;23;20270;-80
2023/03/13 10:23:17;;;;;;;4.90;4.70;;;;;;;16.04;94.65;99319.59;6113521;23;20037;-79
2023/03/13 10:25:43;;;;;;;5.40;5.10;;;;;;;15.93;90.68;99255.31;6099881;23;20454;-82
2023/03/13 10:28:13;;;;;;;5.30;5.00;;;;;;;14.70;89.05;99036.38;6118250;23;20033;-81
2023/03/13 10:30:48;;;;;;;5.03;4.80;;;;;;;16.18;89.39;99289.13;6090667;23;20588;-80
2023/03/13 10:33:23;;;;;;;4.95;4.75;;;;;;;15.11;89.53;99143.34;6115314;23;20086;-82
2023/03/13 10:36:10;;;;;;;5.50;5.20;;;;;;;16.33;90.43;99300.84;6107262;23;20746;-80
2023/03/13 10:38:47;;;;;;;5.22;4.93;;;;;;;16.47;88.26;99270.34;6083902;23;20344;-79
2023/03/13 10:41:26;;;;;;;5.45;5.18;;;;;;;16.72;86.88;99277.50;6112443;23;20009;-78
2023/03/13 10:44:07;;;;;;;5.75;5.25;;;;;;;16.66;85.14;99251.66;6087653;23;20569;-82
2023/03/13 10:46:40;;;;;;;5.15;4.90;;;;;;;16.43;84.51;99194.84;6112393;23;20075;-78
2023/03/13 10:49:22;;;;;;;5.20;4.90;;;;;;;16.92;83.37;99234.97;6120115;23;20025;-76
2023/03/13 10:51:54;;;;;;;9.20;5.10;;;;;;;16.37;82.35;99138.06;6095698;23;20294;-80
2023/03/13 10:54:23;;;;;;;;;;;;;;;16.97;82.17;99203.50;6091082;23;20511;-77
2023/03/13 10:57:06;;;;;;;5.32;5.03;;;;;;;16.72;81.53;99179.50;6121389;23;19909;-79
2023/03/13 10:59:41;;;;;;;5.40;5.10;;;;;;;16.66;82.24;99180.13;6093979;23;20075;-78
2023/03/13 11:02:22;;;;;;;5.50;5.20;;;;;;;16.74;82.42;99169.56;6089585;23;20042;-80
2023/03/13 11:04:55;;;;;;;5.30;4.90;;;;;;;16.24;82.49;99095.31;6091801;23;20056;-78
2023/03/13 11:07:26;;;;;;;5.30;5.05;;;;;;;16.09;82.25;99081.78;6117223;23;20025;-81
2023/03/13 11:10:18;;;;;;;5.38;4.97;;;;;;;16.63;82.91;99156.59;6090359;23;20077;-79
2023/03/13 11:12:55;;;;;;;5.35;4.97;;;;;;;15.54;82.67;99020.19;6082961;23;20114;-81
2023/03/13 11:15:31;;;;;;;5.03;4.78;;;;;;;16.34;82.88;99151.63;6088062;23;20038;-79
2023/03/13 11:18:14;;;;;;;5.00;4.80;;;;;;;13.90;82.69;98745.91;6089371;23;20057;-79
2023/03/13 11:20:42;;;;;;;;;;;;;;;16.55;82.72;99138.00;6067725;23;20043;-81
2023/03/13 11:23:24;;;;;;;5.30;5.00;;;;;;;16.73;82.89;99154.66;6090535;23;20356;-78
2023/03/13 11:26:05;;;;;;;5.30;5.00;;;;;;;16.58;79.89;99055.59;6068420;23;20046;-80
2023/03/13 11:28:50;;;;;;;4.85;4.65;;;;;;;17.08;78.59;99091.91;6093305;23;20081;-81
2023/03/13 11:31:39;;;;;;;4.95;4.75;;;;;;;17.09;76.67;99084.78;6095759;23;20010;-79
2023/03/13 11:34:39;;;;;;;4.97;4.78;;;;;;;15.70;77.31;98865.28;6072199;23;20033;-81
2023/03/13 11:37:13;;;;;;;5.13;4.93;;;;;;;16.78;76.34;99024.38;6088983;23;20076;-82
2023/03/13 11:39:45;;;;;;;5.22;4.93;;;;;;;16.91;76.16;99045.97;6084288;23;20026;-81
2023/03/13 11:42:39;;;;;;;5.20;5.00;;;;;;;17.04;76.81;99068.53;6093712;23;20053;-80
2023/03/13 11:45:24;;;;;;;;;;;;;;;17.36;75.13;99046.56;6078555;23;20021;-82
2023/03/13 11:48:41;;;;;;;5.07;4.88;;;;;;;17.49;75.02;99040.75;6094290;23;19917;-80
2023/03/13 11:51:22;;;;;;;5.40;5.10;;;;;;;16.85;75.13;98939.81;6042843;23;20033;-79
2023/03/13 11:54:10;;;;;;;5.25;5.00;;;;;;;17.47;75.38;99014.41;6088889;23;20045;-80